Time;durP1;ratioP1;P1;durP2;ratioP2;P2;SDS_P1;SDS_P2;PMS_P1;PMS_P2;Temp;Humidity;BMP_temperature;BMP_pressure;BME280_temperature;BME280_humidity;BME280_pressure;Samples;Min_cycle;Max_cycle;Signal;HPM_P1;HPM_P2
2022/08/25 00:00:05;;;;;;;0.00;0.00;;;;;;;19.06;92.93;101589.91;5028133;28;20026;-70
2022/08/25 00:02:30;;;;;;;0.00;0.00;;;;;;;19.01;93.64;101586.81;5030262;28;20071;-70
2022/08/25 00:04:55;;;;;;;0.00;0.00;;;;;;;18.90;93.50;101587.88;5019272;28;20029;-70
2022/08/25 00:07:20;;;;;;;0.00;0.00;;;;;;;18.77;93.15;101580.09;5036258;28;20063;-70
2022/08/25 00:09:46;;;;;;;0.00;0.00;;;;;;;18.72;94.81;101585.16;5031646;28;20581;-70
2022/08/25 00:12:11;;;;;;;0.00;0.00;;;;;;;18.72;95.14;101577.88;5028411;28;20029;-70
2022/08/25 00:14:37;;;;;;;0.00;0.00;;;;;;;18.71;97.25;101584.31;5027928;28;20530;-69
2022/08/25 00:17:04;;;;;;;0.00;0.00;;;;;;;18.74;95.69;101572.25;5029387;28;20105;-69
2022/08/25 00:19:32;;;;;;;0.00;0.00;;;;;;;18.99;95.27;101581.53;5031359;28;20040;-70
2022/08/25 00:21:58;;;;;;;0.00;0.00;;;;;;;19.01;95.21;101582.25;5028060;28;20045;-69
2022/08/25 00:24:24;;;;;;;0.00;0.00;;;;;;;18.97;94.04;101578.13;5029130;28;20025;-70
2022/08/25 00:26:53;;;;;;;0.00;0.00;;;;;;;19.02;96.00;101583.94;5027657;28;20034;-69
2022/08/25 00:29:18;;;;;;;0.00;0.00;;;;;;;18.86;93.20;101581.03;5019499;28;20033;-70
2022/08/25 00:31:44;;;;;;;0.00;0.00;;;;;;;18.73;93.75;101562.38;5013316;28;20033;-70
2022/08/25 00:34:16;;;;;;;0.00;0.00;;;;;;;18.88;93.43;101587.16;5027486;28;20071;-70
2022/08/25 00:36:42;;;;;;;0.00;0.00;;;;;;;18.89;92.87;101586.16;5020137;28;20468;-70
2022/08/25 00:39:09;;;;;;;0.00;0.00;;;;;;;18.76;92.13;101577.56;5023722;28;20045;-70
2022/08/25 00:41:36;;;;;;;0.00;0.00;;;;;;;18.72;91.80;101585.16;5026754;28;20394;-70
2022/08/25 00:44:04;;;;;;;0.00;0.00;;;;;;;18.56;91.55;101586.72;5026817;28;20049;-70
2022/08/25 00:46:39;;;;;;;0.00;0.00;;;;;;;18.41;92.19;101571.91;5022202;28;20021;-70
2022/08/25 00:49:11;;;;;;;0.00;0.00;;;;;;;18.38;92.98;101583.97;5027238;28;20451;-70
2022/08/25 00:51:39;;;;;;;0.00;0.00;;;;;;;18.38;93.52;101588.56;5026437;28;20060;-70
2022/08/25 00:54:06;;;;;;;0.00;0.00;;;;;;;18.16;92.99;101568.09;5023593;28;20037;-69
2022/08/25 00:56:33;;;;;;;0.00;0.00;;;;;;;18.23;93.73;101570.03;5025915;28;20048;-70
2022/08/25 00:58:59;;;;;;;0.00;0.00;;;;;;;18.38;93.20;101591.28;5025733;28;20213;-70
2022/08/25 01:01:25;;;;;;;0.00;0.00;;;;;;;18.33;93.17;101580.84;5029280;28;20797;-70
2022/08/25 01:03:50;;;;;;;0.00;0.00;;;;;;;18.31;93.85;101582.84;5022744;28;20115;-70
2022/08/25 01:06:16;;;;;;;0.00;0.00;;;;;;;18.23;94.40;101586.34;5022892;28;20637;-70
2022/08/25 01:08:41;;;;;;;0.00;0.00;;;;;;;18.25;94.10;101581.63;5024190;28;20053;-70
2022/08/25 01:11:09;;;;;;;0.00;0.00;;;;;;;18.26;94.27;101590.63;5027969;28;20035;-70
2022/08/25 01:13:38;;;;;;;0.00;0.00;;;;;;;18.32;93.94;101587.28;5025199;28;20026;-70
2022/08/25 01:16:03;;;;;;;0.00;0.00;;;;;;;18.34;93.58;101584.44;5028361;28;20034;-70
2022/08/25 01:18:41;;;;;;;0.00;0.00;;;;;;;18.31;93.45;101577.41;5030059;28;20067;-70
2022/08/25 01:21:06;;;;;;;0.00;0.00;;;;;;;18.33;93.24;101583.56;5029718;28;20029;-70
2022/08/25 01:23:32;;;;;;;0.00;0.00;;;;;;;18.27;92.84;101570.59;5029545;28;20037;-71
2022/08/25 01:26:04;;;;;;;0.10;0.10;;;;;;;18.34;92.31;101568.13;5025892;28;20127;-71
2022/08/25 01:28:30;;;;;;;0.00;0.00;;;;;;;18.49;92.50;101585.59;5025004;28;20025;-71
2022/08/25 01:30:55;;;;;;;0.00;0.00;;;;;;;18.48;91.83;101588.50;5027019;28;20025;-71
2022/08/25 01:33:21;;;;;;;0.00;0.00;;;;;;;18.51;91.47;101582.75;5027373;28;20033;-71
2022/08/25 01:35:46;;;;;;;0.00;0.00;;;;;;;18.62;89.92;101573.50;5025904;28;20053;-71
2022/08/25 01:38:12;;;;;;;0.00;0.00;;;;;;;18.87;88.25;101580.03;5020899;28;20379;-71
2022/08/25 01:40:38;;;;;;;0.00;0.00;;;;;;;19.02;87.77;101583.06;5025709;28;20068;-71
2022/08/25 01:43:10;;;;;;;0.00;0.00;;;;;;;18.99;87.51;101584.25;5026595;28;20033;-71
2022/08/25 01:45:37;;;;;;;0.00;0.00;;;;;;;19.05;86.57;101584.66;5024508;28;20029;-72
2022/08/25 01:48:03;;;;;;;0.00;0.00;;;;;;;19.15;85.75;101578.09;5023514;28;20120;-71
2022/08/25 01:50:29;;;;;;;0.00;0.00;;;;;;;19.06;85.92;101586.34;5026178;28;20064;-71
2022/08/25 01:52:55;;;;;;;0.00;0.00;;;;;;;18.96;85.88;101587.28;5023524;28;20040;-71
2022/08/25 01:55:21;;;;;;;0.00;0.00;;;;;;;18.76;86.50;101583.84;5023629;28;20112;-71
2022/08/25 01:57:46;;;;;;;0.00;0.00;;;;;;;18.61;86.43;101566.38;5023657;28;20445;-71
2022/08/25 02:00:13;;;;;;;0.00;0.00;;;;;;;18.58;86.18;101586.53;5023523;28;20036;-71
2022/08/25 02:02:41;;;;;;;0.00;0.00;;;;;;;18.27;86.62;101551.59;5021742;28;20426;-71
2022/08/25 02:05:07;;;;;;;0.00;0.00;;;;;;;18.36;86.90;101585.97;5019742;28;20480;-71
2022/08/25 02:07:33;;;;;;;0.00;0.00;;;;;;;18.23;87.02;101588.22;5021960;28;20061;-71
2022/08/25 02:09:58;;;;;;;0.00;0.00;;;;;;;18.03;87.19;101573.88;5025313;28;20589;-71
2022/08/25 02:12:24;;;;;;;0.00;0.00;;;;;;;18.09;87.21;101589.59;5014488;28;20018;-71
2022/08/25 02:14:49;;;;;;;0.00;0.00;;;;;;;18.08;87.19;101590.59;5026498;28;20495;-71
2022/08/25 02:17:16;;;;;;;0.00;0.00;;;;;;;18.12;87.17;101594.72;5022748;28;20034;-71
2022/08/25 02:19:41;;;;;;;0.00;0.00;;;;;;;18.10;87.46;101596.72;5025012;28;20030;-71
2022/08/25 02:22:06;;;;;;;0.00;0.00;;;;;;;18.10;87.55;101591.28;5024713;28;20391;-71
2022/08/25 02:24:32;;;;;;;0.00;0.00;;;;;;;18.01;87.70;101586.75;5025974;28;20072;-71
2022/08/25 02:26:57;;;;;;;0.00;0.00;;;;;;;17.99;87.61;101593.19;5023136;28;20034;-71
2022/08/25 02:29:22;;;;;;;0.00;0.00;;;;;;;17.93;87.67;101587.47;5024352;28;20035;-71
2022/08/25 02:31:48;;;;;;;0.00;0.00;;;;;;;17.86;87.50;101586.34;5023238;28;20122;-71
2022/08/25 02:34:14;;;;;;;0.00;0.00;;;;;;;17.73;87.44;101568.56;5023820;28;20144;-71
2022/08/25 02:36:40;;;;;;;0.00;0.00;;;;;;;17.72;87.97;101585.84;5021692;28;20069;-71
2022/08/25 02:39:06;;;;;;;0.00;0.00;;;;;;;17.51;88.01;101567.88;4997905;28;20424;-71
2022/08/25 02:41:32;;;;;;;0.00;0.00;;;;;;;17.44;88.79;101576.78;5023265;28;20025;-71
2022/08/25 02:43:59;;;;;;;0.00;0.00;;;;;;;17.34;89.35;101576.81;5023599;28;20510;-71
2022/08/25 02:46:24;;;;;;;0.00;0.00;;;;;;;17.25;89.42;101578.53;5025108;28;20025;-71
2022/08/25 02:48:51;;;;;;;0.00;0.00;;;;;;;17.05;90.33;101575.84;5023001;28;20032;-71
2022/08/25 02:51:17;;;;;;;0.00;0.00;;;;;;;17.00;90.82;101577.28;5024429;28;20056;-71
2022/08/25 02:53:44;;;;;;;0.00;0.00;;;;;;;16.94;90.61;101573.25;5021604;28;20137;-71
2022/08/25 02:56:10;;;;;;;0.00;0.00;;;;;;;16.85;91.24;101577.69;5021706;28;20026;-71
2022/08/25 02:58:37;;;;;;;0.00;0.00;;;;;;;16.75;91.38;101564.13;5018033;28;20029;-71
2022/08/25 03:01:02;;;;;;;0.00;0.00;;;;;;;16.81;91.42;101578.13;5025268;28;20025;-71
2022/08/25 03:03:28;;;;;;;0.10;0.10;;;;;;;16.63;91.89;101555.28;5025005;28;20394;-72
2022/08/25 03:05:55;;;;;;;0.00;0.00;;;;;;;16.57;91.70;101542.28;5022209;28;20032;-72
2022/08/25 03:08:21;;;;;;;0.10;0.00;;;;;;;16.66;92.33;101567.69;5026240;28;20035;-71
2022/08/25 03:10:46;;;;;;;0.00;0.00;;;;;;;16.63;92.30;101562.53;5025195;28;20037;-72
2022/08/25 03:13:11;;;;;;;0.00;0.00;;;;;;;16.57;92.54;101563.97;5026993;28;20025;-71
2022/08/25 03:15:37;;;;;;;0.00;0.00;;;;;;;16.55;92.83;101557.84;5029279;28;20029;-71
2022/08/25 03:18:04;;;;;;;0.00;0.00;;;;;;;16.45;92.69;101543.41;5030272;28;20028;-71
2022/08/25 03:20:29;;;;;;;0.00;0.00;;;;;;;16.52;92.43;101558.13;5030819;28;20036;-71
2022/08/25 03:22:55;;;;;;;0.00;0.00;;;;;;;16.42;92.48;101551.84;5029096;28;20033;-70
2022/08/25 03:28:05;;;;;;;0.00;0.00;;;;;;;16.34;92.55;101556.09;5027370;28;20105;-72
2022/08/25 03:30:31;;;;;;;0.00;0.00;;;;;;;16.40;92.16;101554.69;5029180;28;20025;-71
2022/08/25 03:32:56;;;;;;;0.00;0.00;;;;;;;16.38;92.16;101548.53;5026460;28;20443;-71
2022/08/25 03:35:22;;;;;;;0.00;0.00;;;;;;;16.48;92.21;101545.84;5029084;28;20139;-72
2022/08/25 03:37:47;;;;;;;0.00;0.00;;;;;;;16.55;92.20;101548.88;5019503;28;20496;-72
2022/08/25 03:40:14;;;;;;;0.00;0.00;;;;;;;16.63;91.76;101549.00;5020962;28;20086;-71
2022/08/25 03:42:43;;;;;;;0.00;0.00;;;;;;;16.53;91.69;101531.88;5024819;28;20024;-72
2022/08/25 03:45:10;;;;;;;0.00;0.00;;;;;;;16.72;91.26;101540.00;5025182;28;20048;-72
2022/08/25 03:47:37;;;;;;;0.00;0.00;;;;;;;16.87;89.85;101536.84;5026094;28;20064;-72
2022/08/25 03:50:04;;;;;;;0.00;0.00;;;;;;;16.90;90.23;101521.16;5001903;28;20029;-72
2022/08/25 03:52:30;;;;;;;0.00;0.00;;;;;;;17.03;89.41;101528.16;5025512;28;20292;-72
2022/08/25 03:54:55;;;;;;;0.00;0.00;;;;;;;17.19;88.08;101527.56;5026088;28;20383;-72
2022/08/25 03:57:20;;;;;;;0.00;0.00;;;;;;;17.24;87.01;101519.84;5026506;28;20033;-72
2022/08/25 03:59:46;;;;;;;0.00;0.00;;;;;;;17.31;87.04;101528.25;5027754;28;20060;-72
2022/08/25 04:02:11;;;;;;;0.00;0.00;;;;;;;17.47;85.65;101522.19;5028091;28;20475;-72
2022/08/25 04:04:36;;;;;;;0.00;0.00;;;;;;;17.54;85.96;101529.59;5020662;28;20029;-72
2022/08/25 04:07:02;;;;;;;0.00;0.00;;;;;;;17.47;85.46;101528.50;5028196;28;20722;-72
2022/08/25 04:09:27;;;;;;;0.00;0.00;;;;;;;17.50;85.43;101524.63;5026871;28;20759;-72
2022/08/25 04:11:52;;;;;;;0.00;0.00;;;;;;;17.49;84.90;101518.31;5027059;28;20029;-72
2022/08/25 04:14:18;;;;;;;0.00;0.00;;;;;;;17.44;85.50;101515.22;5025431;28;20466;-72
2022/08/25 04:16:44;;;;;;;0.00;0.00;;;;;;;17.49;85.13;101515.59;5028062;28;20025;-72
2022/08/25 04:19:10;;;;;;;0.00;0.00;;;;;;;17.54;84.90;101518.72;5026767;28;20083;-72
2022/08/25 04:21:37;;;;;;;0.00;0.00;;;;;;;17.57;84.17;101522.16;5027045;28;20447;-72
2022/08/25 04:24:03;;;;;;;0.00;0.00;;;;;;;17.55;84.31;101511.47;5025782;28;20035;-72
2022/08/25 04:26:35;;;;;;;0.00;0.00;;;;;;;17.50;84.50;101513.75;5025049;28;20394;-73
2022/08/25 04:29:02;;;;;;;0.00;0.00;;;;;;;17.51;83.63;101513.59;5026363;28;20384;-74
2022/08/25 04:31:28;;;;;;;0.00;0.00;;;;;;;17.62;83.17;101519.84;5027332;28;20496;-72
2022/08/25 04:33:54;;;;;;;0.00;0.00;;;;;;;17.64;83.08;101523.28;5020869;28;20041;-71
2022/08/25 04:36:19;;;;;;;0.10;0.03;;;;;;;17.70;nan;101514.53;5026982;28;20041;-73
2022/08/25 04:38:46;;;;;;;0.00;0.00;;;;;;;17.75;82.67;101516.78;5025995;28;20092;-72
2022/08/25 04:41:13;;;;;;;0.00;0.00;;;;;;;17.76;82.64;101515.78;5023787;28;20071;-74
2022/08/25 04:43:39;;;;;;;0.00;0.00;;;;;;;17.73;82.74;101519.66;5017416;28;20056;-73
2022/08/25 04:46:11;;;;;;;0.00;0.00;;;;;;;17.79;81.95;101507.34;5025345;28;20033;-74
2022/08/25 04:48:38;;;;;;;0.00;0.00;;;;;;;17.83;81.77;101522.34;5010711;28;20468;-73
2022/08/25 04:51:08;;;;;;;0.10;0.10;;;;;;;17.82;81.39;101526.91;5023432;28;20523;-74
2022/08/25 04:53:35;;;;;;;0.00;0.00;;;;;;;17.87;82.21;101515.59;5022163;28;20104;-73
2022/08/25 04:56:01;;;;;;;0.00;0.00;;;;;;;17.86;82.07;101518.44;5021358;28;20107;-73
2022/08/25 04:58:26;;;;;;;0.10;0.10;;;;;;;17.94;81.07;101516.69;5023850;28;20459;-73
2022/08/25 05:00:52;;;;;;;0.10;0.00;;;;;;;17.99;80.34;101517.13;5020828;28;20029;-73
2022/08/25 05:03:17;;;;;;;0.10;0.10;;;;;;;18.10;80.46;101515.22;5025280;28;20034;-73
2022/08/25 05:05:43;;;;;;;0.10;0.10;;;;;;;18.20;79.79;101518.69;5027157;28;20488;-73
2022/08/25 05:08:08;;;;;;;0.00;0.00;;;;;;;18.24;78.46;101508.41;5025533;28;20042;-73
2022/08/25 05:10:38;;;;;;;0.00;0.00;;;;;;;18.28;79.28;101507.94;5026615;28;20033;-73
2022/08/25 05:13:04;;;;;;;0.40;0.00;;;;;;;18.27;79.29;101513.53;5025797;28;20033;-73
2022/08/25 05:18:14;;;;;;;;;;;;;;;18.42;78.09;101511.09;5025029;28;20114;-74
2022/08/25 05:20:40;;;;;;;0.28;0.28;;;;;;;18.59;76.58;101515.69;5025437;28;19916;-72
2022/08/25 05:23:05;;;;;;;0.00;0.00;;;;;;;18.68;75.73;101516.63;5022849;28;20418;-73
2022/08/25 05:25:31;;;;;;;0.00;0.00;;;;;;;18.80;75.61;101519.13;5008863;28;20400;-73
2022/08/25 05:27:56;;;;;;;0.00;0.00;;;;;;;18.92;74.90;101520.56;5024917;28;20065;-73
2022/08/25 05:30:21;;;;;;;0.00;0.00;;;;;;;18.96;74.59;101521.97;5026779;28;20037;-73
2022/08/25 05:32:47;;;;;;;0.00;0.00;;;;;;;18.89;75.08;101499.97;5021193;28;20124;-72
2022/08/25 05:35:12;;;;;;;0.00;0.00;;;;;;;19.06;74.16;101521.88;5025129;28;20485;-73
2022/08/25 05:37:37;;;;;;;0.00;0.00;;;;;;;19.20;74.08;101528.63;5025690;28;20132;-73
2022/08/25 05:40:05;;;;;;;0.00;0.00;;;;;;;19.25;73.89;101531.72;5025317;28;20519;-73
2022/08/25 05:42:30;;;;;;;0.00;0.00;;;;;;;19.36;74.11;101538.75;5019898;28;20104;-73
2022/08/25 05:44:55;;;;;;;0.00;0.00;;;;;;;19.45;74.23;101545.97;5024009;28;20033;-73
2022/08/25 05:47:21;;;;;;;0.00;0.00;;;;;;;19.51;74.92;101539.03;5026087;28;20031;-73
2022/08/25 05:49:47;;;;;;;0.60;0.60;;;;;;;19.59;74.52;101535.47;5024315;28;20037;-73
2022/08/25 05:52:12;;;;;;;0.00;0.00;;;;;;;19.72;74.36;101546.78;5021925;28;20059;-73
2022/08/25 05:54:38;;;;;;;0.00;0.00;;;;;;;19.79;74.43;101547.81;5025913;28;20038;-73
2022/08/25 05:57:04;;;;;;;0.00;0.00;;;;;;;19.88;74.06;101547.91;5026505;28;20029;-74
2022/08/25 05:59:30;;;;;;;0.00;0.00;;;;;;;19.82;73.36;101513.09;5024461;28;20059;-73
2022/08/25 06:04:38;;;;;;;0.00;0.00;;;;;;;20.18;72.15;101541.03;5023337;28;20276;-73
2022/08/25 06:07:04;;;;;;;0.00;0.00;;;;;;;20.27;71.09;101533.72;5016534;28;20025;-77
2022/08/25 06:09:29;;;;;;;0.00;0.00;;;;;;;20.45;72.46;101547.22;5026218;28;20104;-74
2022/08/25 06:11:54;;;;;;;0.00;0.00;;;;;;;20.45;69.97;101533.56;5022501;28;20453;-77
2022/08/25 06:14:20;;;;;;;0.00;0.00;;;;;;;20.67;69.25;101547.56;5021322;28;20112;-76
2022/08/25 06:16:47;;;;;;;0.00;0.00;;;;;;;20.79;69.34;101551.72;5023576;28;20033;-74
2022/08/25 06:19:13;;;;;;;0.00;0.00;;;;;;;20.91;68.77;101546.78;5024037;28;20040;-76
2022/08/25 06:21:39;;;;;;;0.20;0.20;;;;;;;21.02;67.94;101548.31;5021430;28;20025;-76
2022/08/25 06:24:05;;;;;;;0.00;0.00;;;;;;;21.18;68.24;101549.34;5022748;28;20490;-74
2022/08/25 06:26:30;;;;;;;0.00;0.00;;;;;;;21.23;67.83;101547.78;5022428;28;20057;-74
2022/08/25 06:28:56;;;;;;;0.10;0.10;;;;;;;21.37;68.06;101548.09;5021828;28;20029;-74
2022/08/25 06:31:22;;;;;;;0.00;0.00;;;;;;;21.41;68.01;101536.66;5021632;28;20459;-76
2022/08/25 06:33:48;;;;;;;0.00;0.00;;;;;;;21.54;66.79;101540.69;5018124;28;20029;-76
2022/08/25 06:36:14;;;;;;;0.05;0.00;;;;;;;21.66;64.81;101555.75;5020238;28;20039;-78
2022/08/25 06:38:40;;;;;;;0.00;0.00;;;;;;;21.75;66.15;101548.34;5024044;28;20029;-76
2022/08/25 06:41:06;;;;;;;0.00;0.00;;;;;;;21.88;65.17;101542.31;5026071;28;20368;-77
2022/08/25 06:43:33;;;;;;;0.00;0.00;;;;;;;21.92;65.75;101545.53;5021122;28;20061;-75
2022/08/25 06:46:07;;;;;;;0.00;0.00;;;;;;;21.97;64.19;101543.13;5023477;28;20041;-77
2022/08/25 06:48:33;;;;;;;0.00;0.00;;;;;;;22.11;64.27;101556.06;5024651;28;20030;-74
2022/08/25 06:50:58;;;;;;;0.00;0.00;;;;;;;22.06;64.29;101530.28;5026637;28;20449;-77
2022/08/25 06:53:23;;;;;;;0.00;0.00;;;;;;;22.30;63.78;101545.69;5025558;28;20116;-76
2022/08/25 06:55:56;;;;;;;0.00;0.00;;;;;;;22.11;62.66;101516.91;5025063;28;20495;-76
2022/08/25 06:58:22;;;;;;;0.00;0.00;;;;;;;22.38;63.64;101542.91;5028347;28;20112;-74
2022/08/25 07:00:48;;;;;;;0.00;0.00;;;;;;;22.47;62.81;101533.63;5024744;28;20452;-76
2022/08/25 07:03:13;;;;;;;0.00;0.00;;;;;;;22.61;62.03;101525.69;5028345;28;20367;-76
2022/08/25 07:05:38;;;;;;;0.00;0.00;;;;;;;22.77;61.52;101546.63;5026474;28;20032;-75
2022/08/25 07:08:03;;;;;;;0.05;0.05;;;;;;;22.85;60.27;101545.69;5029626;28;20029;-75
2022/08/25 07:10:29;;;;;;;0.00;0.00;;;;;;;22.90;61.85;101546.00;5028799;28;20080;-76
2022/08/25 07:12:54;;;;;;;0.00;0.00;;;;;;;22.86;60.64;101517.28;5026267;28;20021;-75
2022/08/25 07:15:20;;;;;;;0.00;0.00;;;;;;;23.03;60.34;101539.88;5025229;28;20049;-74
2022/08/25 07:17:45;;;;;;;0.00;0.00;;;;;;;23.15;61.00;101537.53;5029378;28;20091;-74
2022/08/25 07:20:11;;;;;;;0.00;0.00;;;;;;;23.35;59.86;101529.66;5027856;28;20112;-74
2022/08/25 07:22:37;;;;;;;0.00;0.00;;;;;;;23.36;59.56;101531.34;5026391;28;20051;-75
2022/08/25 07:25:03;;;;;;;0.00;0.00;;;;;;;23.54;59.38;101525.50;5026580;28;20197;-75
2022/08/25 07:27:28;;;;;;;0.00;0.00;;;;;;;23.61;59.45;101534.69;5027695;28;20029;-75
2022/08/25 07:29:53;;;;;;;0.00;0.00;;;;;;;23.69;59.19;101511.78;5026504;28;20045;-74
2022/08/25 07:32:19;;;;;;;0.00;0.00;;;;;;;23.98;59.50;101536.63;5026067;28;20065;-74
2022/08/25 07:37:28;;;;;;;0.00;0.00;;;;;;;24.11;58.61;101526.69;5026558;28;20045;-75
2022/08/25 07:39:54;;;;;;;0.00;0.00;;;;;;;24.18;57.74;101518.53;5029526;28;20030;-75
2022/08/25 07:42:19;;;;;;;0.00;0.00;;;;;;;24.23;55.97;101526.19;5027435;28;20348;-72
2022/08/25 07:44:44;;;;;;;0.00;0.00;;;;;;;24.24;56.26;101515.00;5027542;28;20072;-75
2022/08/25 07:47:09;;;;;;;0.00;0.00;;;;;;;24.38;58.02;101526.13;5029098;28;20390;-74
2022/08/25 07:49:35;;;;;;;0.00;0.00;;;;;;;24.47;58.37;101513.13;5029065;28;20098;-74
2022/08/25 07:52:00;;;;;;;0.00;0.00;;;;;;;24.64;56.74;101520.03;5020434;28;20060;-75
2022/08/25 07:54:26;;;;;;;0.28;0.00;;;;;;;24.84;58.57;101525.75;5026388;28;20041;-74
2022/08/25 07:56:52;;;;;;;0.00;0.00;;;;;;;24.99;56.36;101533.91;5026708;28;20067;-73
2022/08/25 07:59:17;;;;;;;0.00;0.00;;;;;;;25.14;55.68;101532.97;5025948;28;20112;-74
2022/08/25 08:01:43;;;;;;;0.00;0.00;;;;;;;25.19;54.52;101526.88;5028275;28;20021;-74
2022/08/25 08:04:08;;;;;;;0.00;0.00;;;;;;;25.32;55.72;101540.69;5006781;28;20030;-75
2022/08/25 08:06:34;;;;;;;0.00;0.00;;;;;;;25.50;55.24;101534.72;5027867;28;20108;-74
2022/08/25 08:09:01;;;;;;;0.00;0.00;;;;;;;25.70;54.96;101528.47;5027464;28;20124;-74
2022/08/25 08:11:33;;;;;;;0.00;0.00;;;;;;;25.89;55.14;101524.97;5028825;28;20033;-74
2022/08/25 08:13:59;;;;;;;0.00;0.00;;;;;;;26.02;54.02;101524.19;5020482;28;20040;-74
2022/08/25 08:16:26;;;;;;;0.00;0.00;;;;;;;26.11;54.94;101526.72;5009858;28;20029;-73
2022/08/25 08:18:52;;;;;;;0.00;0.00;;;;;;;26.14;52.98;101520.84;5028222;28;20033;-75
2022/08/25 08:21:23;;;;;;;0.00;0.00;;;;;;;26.25;51.79;101512.00;5027686;28;20442;-73
2022/08/25 08:23:50;;;;;;;0.00;0.00;;;;;;;26.33;50.89;101517.31;5024983;28;20473;-74
2022/08/25 08:26:16;;;;;;;0.03;0.03;;;;;;;26.35;51.43;101514.34;5026925;28;20117;-74
2022/08/25 08:28:41;;;;;;;0.00;0.00;;;;;;;26.49;54.11;101513.31;5022877;28;20018;-74
2022/08/25 08:31:07;;;;;;;0.00;0.00;;;;;;;26.63;52.84;101511.41;5025327;28;20361;-74
2022/08/25 08:33:32;;;;;;;0.00;0.00;;;;;;;26.83;53.43;101512.50;5026039;28;20025;-74
2022/08/25 08:36:00;;;;;;;0.00;0.00;;;;;;;26.99;50.63;101514.00;5020712;28;20076;-75
2022/08/25 08:38:27;;;;;;;0.00;0.00;;;;;;;27.15;51.16;101509.94;5028097;28;20035;-74
2022/08/25 08:43:47;;;;;;;0.00;0.00;;;;;;;27.26;49.52;101501.03;5025064;28;20116;-74
2022/08/25 08:46:13;;;;;;;0.00;0.00;;;;;;;27.28;49.61;101493.38;5024743;28;20068;-74
2022/08/25 08:48:59;;;;;;;0.00;0.00;;;;;;;27.45;50.04;101496.50;5027828;28;20450;-73
2022/08/25 08:51:30;;;;;;;0.10;0.10;;;;;;;27.45;49.87;101468.13;5021784;28;20033;-74
2022/08/25 08:54:19;;;;;;;0.00;0.00;;;;;;;27.69;49.91;101483.09;5017875;28;20053;-73
2022/08/25 08:56:47;;;;;;;0.00;0.00;;;;;;;27.86;50.23;101485.38;5021789;28;20033;-74
2022/08/25 08:59:17;;;;;;;0.00;0.00;;;;;;;27.87;48.56;101484.31;5024562;28;20100;-75
2022/08/25 09:01:58;;;;;;;0.00;0.00;;;;;;;27.73;48.45;101469.72;5023501;28;20041;-74
2022/08/25 09:04:33;;;;;;;0.00;0.00;;;;;;;28.06;48.17;101493.56;5025681;28;20045;-74
2022/08/25 09:06:59;;;;;;;0.00;0.00;;;;;;;28.11;46.82;101486.34;5018604;28;20152;-73
2022/08/25 09:09:30;;;;;;;0.00;0.00;;;;;;;28.29;48.77;101491.09;5021463;28;20456;-74
2022/08/25 09:12:14;;;;;;;0.00;0.00;;;;;;;28.40;45.34;101492.31;5020181;28;20118;-75
2022/08/25 09:14:51;;;;;;;0.00;0.00;;;;;;;28.44;48.46;101493.56;5019311;28;20717;-75
2022/08/25 09:17:34;;;;;;;0.00;0.00;;;;;;;28.61;46.72;101489.38;5024293;28;20021;-74
2022/08/25 09:20:30;;;;;;;0.00;0.00;;;;;;;28.85;45.27;101491.34;5018918;28;20026;-74
2022/08/25 09:23:03;;;;;;;0.00;0.00;;;;;;;28.95;45.07;101484.44;5021286;28;20033;-74
2022/08/25 09:25:54;;;;;;;0.00;0.00;;;;;;;29.06;44.65;101489.22;5017380;28;20071;-73
2022/08/25 09:28:25;;;;;;;0.22;0.22;;;;;;;29.24;44.81;101493.94;5022540;28;20026;-74
2022/08/25 09:31:04;;;;;;;0.08;0.08;;;;;;;29.23;46.45;101481.19;5025450;28;20043;-71
2022/08/25 09:33:33;;;;;;;0.00;0.00;;;;;;;29.43;45.18;101488.44;5012120;28;20514;-73
2022/08/25 09:35:58;;;;;;;0.00;0.00;;;;;;;29.64;45.84;101489.91;5025398;28;20346;-73
2022/08/25 09:38:26;;;;;;;0.00;0.00;;;;;;;29.68;46.33;101480.03;5024425;28;20067;-74
2022/08/25 09:40:54;;;;;;;0.10;0.00;;;;;;;29.74;42.58;101481.88;5024830;28;20072;-74
2022/08/25 09:43:29;;;;;;;0.00;0.00;;;;;;;29.91;45.24;101484.03;5022524;28;20041;-73
2022/08/25 09:46:22;;;;;;;0.00;0.00;;;;;;;30.11;45.40;101475.44;5021657;28;20056;-73
2022/08/25 09:48:54;;;;;;;0.00;0.00;;;;;;;30.21;41.35;101483.16;5023562;28;20041;-72
2022/08/25 09:51:27;;;;;;;0.10;0.10;;;;;;;30.19;39.87;101483.41;5020340;28;20042;-71
2022/08/25 09:54:02;;;;;;;0.00;0.00;;;;;;;30.26;40.98;101476.94;5022459;28;20071;-70
2022/08/25 09:56:30;;;;;;;0.00;0.00;;;;;;;30.50;40.78;101481.47;5022048;28;20033;-71
2022/08/25 09:59:23;;;;;;;0.10;0.10;;;;;;;30.54;39.26;101479.03;5021695;28;20048;-69
2022/08/25 10:01:52;;;;;;;0.10;0.10;;;;;;;30.62;40.69;101472.34;5019547;28;20036;-72
2022/08/25 10:04:25;;;;;;;0.00;0.00;;;;;;;30.58;40.02;101476.69;5025507;28;20425;-72
2022/08/25 10:06:51;;;;;;;;;;;;;;;30.70;39.47;101477.53;5029637;28;20025;-73
2022/08/25 10:09:33;;;;;;;0.00;0.00;;;;;;;30.98;38.71;101464.88;5040451;28;20011;-74
2022/08/25 10:12:01;;;;;;;0.00;0.00;;;;;;;31.18;39.86;101464.53;5031843;28;20040;-76
2022/08/25 10:14:34;;;;;;;0.00;0.00;;;;;;;31.23;40.78;101463.81;5021764;28;20034;-73
2022/08/25 10:17:13;;;;;;;;;;;;;;;31.40;38.20;101458.34;5027652;28;20240;-73
2022/08/25 10:19:39;;;;;;;0.00;0.00;;;;;;;31.66;38.28;101447.78;5031421;28;19953;-73
2022/08/25 10:22:10;;;;;;;0.00;0.00;;;;;;;31.72;35.65;101444.06;5027182;28;20523;-74
2022/08/25 10:24:37;;;;;;;0.10;0.10;;;;;;;31.98;38.16;101448.13;5033162;28;20078;-71
2022/08/25 10:27:11;;;;;;;0.00;0.00;;;;;;;32.19;36.40;101442.13;5025342;28;20120;-73
2022/08/25 10:30:12;;;;;;;0.00;0.00;;;;;;;32.12;36.67;101436.72;5018136;28;20052;-74
2022/08/25 10:32:57;;;;;;;0.00;0.00;;;;;;;32.16;35.11;101429.59;5029557;28;20063;-73
2022/08/25 10:35:31;;;;;;;0.00;0.00;;;;;;;32.36;36.19;101425.50;5030149;28;20041;-73
2022/08/25 10:38:05;;;;;;;0.00;0.00;;;;;;;32.14;32.59;101427.03;5016438;28;20453;-72
2022/08/25 10:40:39;;;;;;;0.00;0.00;;;;;;;32.10;33.47;101416.69;5032819;28;20112;-71
2022/08/25 10:43:06;;;;;;;0.00;0.00;;;;;;;31.93;33.30;101416.66;5026669;28;20474;-73
2022/08/25 10:45:43;;;;;;;0.00;0.00;;;;;;;32.32;32.48;101411.25;5035967;28;20025;-73
2022/08/25 10:48:30;;;;;;;0.00;0.00;;;;;;;32.41;31.64;101401.41;5028014;28;20025;-72
2022/08/25 10:51:07;;;;;;;0.00;0.00;;;;;;;32.82;32.60;101401.19;5033278;28;20076;-73
2022/08/25 10:53:55;;;;;;;0.00;0.00;;;;;;;33.14;32.52;101406.09;5030962;28;20029;-72
2022/08/25 10:56:27;;;;;;;0.10;0.00;;;;;;;33.30;32.04;101397.94;5016527;28;20054;-74
2022/08/25 10:58:58;;;;;;;0.00;0.00;;;;;;;33.34;31.97;101396.31;5022903;28;20018;-73
2022/08/25 11:01:36;;;;;;;0.00;0.00;;;;;;;33.55;30.71;101386.31;5024308;28;20462;-74
2022/08/25 11:04:07;;;;;;;0.00;0.00;;;;;;;33.63;28.56;101385.84;5026981;28;20096;-73
2022/08/25 11:06:46;;;;;;;0.00;0.00;;;;;;;33.54;28.92;101390.19;5026620;28;20530;-74
2022/08/25 11:09:17;;;;;;;0.00;0.00;;;;;;;33.84;31.00;101386.06;5019591;28;20029;-73
2022/08/25 11:11:48;;;;;;;0.00;0.00;;;;;;;33.69;30.81;101383.09;5025714;28;20441;-74
2022/08/25 11:14:18;;;;;;;0.00;0.00;;;;;;;33.69;29.73;101383.09;5022363;28;20034;-74
2022/08/25 11:16:52;;;;;;;0.00;0.00;;;;;;;33.51;29.85;101379.59;5024872;28;20045;-74
2022/08/25 11:19:25;;;;;;;0.00;0.00;;;;;;;33.83;30.53;101384.38;5018136;28;20053;-74
2022/08/25 11:22:12;;;;;;;0.00;0.00;;;;;;;33.67;29.08;101366.66;5023346;28;20037;-72
2022/08/25 11:25:03;;;;;;;0.00;0.00;;;;;;;33.92;29.07;101365.25;5025464;28;20439;-74
2022/08/25 11:27:46;;;;;;;0.00;0.00;;;;;;;34.13;29.43;101369.06;5026584;28;20481;-72
2022/08/25 11:30:14;;;;;;;0.00;0.00;;;;;;;34.53;29.56;101378.84;5021540;28;20033;-73
2022/08/25 11:32:45;;;;;;;0.00;0.00;;;;;;;34.57;27.60;101376.34;5022410;28;20462;-72
2022/08/25 11:35:12;;;;;;;0.00;0.00;;;;;;;34.63;26.98;101360.53;5020410;28;20045;-73
2022/08/25 11:38:06;;;;;;;0.03;0.03;;;;;;;34.04;25.79;101367.88;5024485;28;20140;-73
2022/08/25 11:40:56;;;;;;;0.08;0.08;;;;;;;34.21;28.74;101357.41;5027546;28;20330;-73
2022/08/25 11:43:56;;;;;;;0.00;0.00;;;;;;;34.22;29.72;101353.53;5025201;28;20040;-73
2022/08/25 11:47:02;;;;;;;0.00;0.00;;;;;;;34.46;29.06;101344.78;5028368;28;20075;-72